Terminal Aerodrome Forecast
Issued by NWS

Home | Current Version | Previous Version | Text Only | Print | Product List | Glossary On
Versions: 1 2 3 4 5 6 7 8 9 10 11 12 13 14 15 16 17 18 19 20 21 22 23 24 25 26 27 28 29 30 31 32 33 34
287
FTUS46 KSEW 181724
TAFHQM
TAF
KHQM 181724Z 1818/1918 08012KT P6SM SCT025 BKN035 OVC040
     FM182200 08015G25KT 4SM -RA BR OVC025 WS020/19050KT
     FM190400 14024G34KT 3SM -RA SCT008 BKN015 OVC030
     FM190900 20015G24KT 5SM BR SCT010 BKN020 OVC030=

USA.gov is the U.S. government's official web portal to all federal, state and local government web resources and services.